Buhl, Minnesota
Current Conditions -  °F | °C
As of 6:53 AM on Friday 24 Oct 2014 (Local Time) from KHIB Reporting Station
Haze Haze  
Wind Chill: 40°   Ceiling: Unl
Heat Index: 40°   Visibility: 5mi
Dew Point: 38°   Wind: 3mph
Humidity: 93%   Direction: 150°SSE
Pressure: 29.84"   Gusts: NA
Location:  47.49°N, 92.78°W
Report Text: KHIB 241153Z AUTO 15003KT 5SM BR CLR 04/03 A2984 RMK AO2 SLP114 T00440033 10044 20022 56013
Loading
Personal Weather Stations






























Interactive Weather Map
Tropical Storm Tracking
New forecast layout! Learn more

10-Day Weather Forecast

Advertisements
Track Severe Weather on mobile